• Join FlightAware (Why Join?)
  • Login
  • US Flag 
09:23PM EST


 

Airport Tracker/Info


-or-


 

Live Flight TrackerFlight Track Log ✈ SWA3408 ✈ 05-Apr-2014 ✈ KMHT - KTPA

Flight Track Log - Related Links

Times and Time Zones

All times are in EDT time to prevent confusion due to time zone crossing. See the SWA3408 flight status page for this flight to view local times or setup timezone preferences in your user account.

Time Position Orientation Groundspeed Altitude Reporting Facility
EDT Latitude Longitude Course Direction KTS MPH feet Rate Location/Type
06:33PM 42.9333 -71.4500 219° Southwest 144 166 1,700  Level KA90
06:34PM 42.9053 -71.4806 219° Southwest 157 181 3,000 1,429 Climbing Boston Center
06:35PM 42.9486 -71.4725 North 220 253 4,200 2,049 Climbing Boston Center
06:36PM 42.9733 -71.3803 70° East 261 300 7,200 3,421 Climbing Boston Center
06:37PM 43.0094 -71.2725 65° Northeast 307 353 11,100 3,372 Climbing Boston Center
06:38PM 42.9931 -71.1508 100° East 344 396 14,000 2,829 Climbing Boston Center
06:39PM 42.9250 -71.0497 133° Southeast 372 428 16,900 3,073 Climbing Boston Center
06:40PM 42.8333 -71.0661 187° South 350 403 20,300 3,174 Climbing Boston Center
06:41PM 42.7342 -71.0858 188° South 354 407 23,300 2,777 Climbing Boston Center
06:42PM 42.6500 -71.1497 209° Southwest 360 414 25,900 2,208 Climbing Boston Center
06:43PM 42.6003 -71.2642 239° Southwest 354 407 27,900 1,872 Climbing Boston Center
06:44PM 42.5450 -71.3850 238° Southwest 373 429 29,800 2,231 Climbing Boston Center
06:45PM 42.4769 -71.5319 238° Southwest 381 438 32,400 2,016 Climbing Boston Center
06:46PM 42.4292 -71.6408 239° Southwest 381 438 33,900 1,377 Climbing Boston Center
06:47PM 42.3722 -71.7675 239° Southwest 389 448 35,200 1,426 Climbing Boston Center
06:48PM 42.3111 -71.8964 237° Southwest 404 465 36,800 1,597 Climbing Boston Center
06:49PM 42.2533 -72.0233 238° Southwest 400 460 38,500 1,438 Climbing Boston Center
06:50PM 42.1942 -72.1500 238° Southwest 399 459 39,700 738 Climbing Boston Center
06:51PM 42.1225 -72.3031 238° Southwest 400 460 40,000 145 Climbing Boston Center
06:52PM 42.0633 -72.4311 238° Southwest 400 460 40,000  Level Boston Center
06:53PM 42.0025 -72.5583 237° Southwest 401 461 40,000  Level Boston Center
06:54PM 41.9425 -72.6847 237° Southwest 401 461 40,000  Level Boston Center
06:55PM 41.8636 -72.7953 226° Southwest 405 466 40,000  Level Boston Center
06:56PM 41.7842 -72.9019 225° Southwest 406 467 40,000  Level Boston Center
06:57PM 41.7064 -73.0089 226° Southwest 404 465 40,000  Level Boston Center
06:58PM 41.6272 -73.1158 225° Southwest 404 465 40,000  Level Boston Center
06:59PM 41.5478 -73.2242 226° Southwest 405 466 40,000  Level Boston Center
07:00PM 41.4647 -73.3347 225° Southwest 406 467 40,000  Level Boston Center
07:01PM 41.3864 -73.4414 226° Southwest 406 467 40,000  Level Boston Center
07:02PM 41.3067 -73.5469 225° Southwest 406 467 40,000  Level Boston Center
07:03PM 41.2339 -73.6586 229° Southwest 403 464 40,000  Level Boston Center
07:04PM 41.1508 -73.7983 232° Southwest 403 464 40,000  Level Boston Center
07:05PM 41.0822 -73.9150 232° Southwest 403 464 40,000  Level Boston Center
07:06PM 41.0392 -73.9858 231° Southwest 408 470 40,000  Level New York Center
07:07PM 40.9697 -74.1025 232° Southwest 406 467 40,000  Level New York Center
07:08PM 40.8967 -74.2225 231° Southwest 406 467 40,000  Level New York Center
07:09PM 40.8267 -74.3372 231° Southwest 405 466 40,000  Level New York Center
07:10PM 40.7583 -74.4533 232° Southwest 405 466 40,000  Level New York Center
07:11PM 40.6883 -74.5678 231° Southwest 402 463 40,000  Level New York Center
07:12PM 40.6189 -74.6825 231° Southwest 402 463 40,000  Level New York Center
07:13PM 40.5319 -74.8136 229° Southwest 401 461 40,000  Level New York Center
07:14PM 40.4522 -74.9261 227° Southwest 406 467 40,000  Level New York Center
07:15PM 40.3772 -75.0314 227° Southwest 395 455 40,000  Level New York Center
07:16PM 40.3017 -75.1369 227° Southwest 396 456 40,000  Level New York Center
07:17PM 40.2211 -75.2494 227° Southwest 396 456 40,000  Level New York Center
07:18PM 40.1558 -75.3403 227° Southwest 398 458 40,000  Level New York Center
07:19PM 40.0806 -75.4447 227° Southwest 399 459 40,000  Level New York Center
07:20PM 39.9903 -75.5697 227° Southwest 398 458 40,000  Level New York Center
07:21PM 39.9147 -75.6747 227° Southwest 400 460 40,000  Level New York Center
07:22PM 39.8447 -75.7878 231° Southwest 400 460 40,000  Level New York Center
07:23PM 39.7661 -75.9117 230° Southwest 402 463 40,000  Level New York Center
07:24PM 39.6964 -76.0242 231° Southwest 401 461 40,000  Level New York Center
07:25PM 39.6336 -76.1222 230° Southwest 401 461 40,000  Level New York Center
07:26PM 39.5744 -76.2214 232° Southwest 406 467 40,000  Level Washington Center
07:27PM 39.5114 -76.3231 231° Southwest 400 460 40,000  Level Washington Center
07:28PM 39.4419 -76.4328 231° Southwest 400 460 40,000  Level Washington Center
07:29PM 39.3661 -76.5392 227° Southwest 400 460 40,000  Level Washington Center
07:30PM 39.2964 -76.6508 231° Southwest 400 460 40,000  Level Washington Center
07:31PM 39.2267 -76.7569 230° Southwest 400 460 40,000  Level Washington Center
07:32PM 39.1547 -76.8683 230° Southwest 405 466 40,000  Level Washington Center
07:33PM 39.0847 -76.9822 232° Southwest 405 466 40,000  Level Washington Center
07:34PM 39.0042 -77.0822 224° Southwest 405 466 40,000  Level Washington Center
07:35PM 38.9197 -77.1739 220° Southwest 405 466 40,000  Level Washington Center
07:36PM 38.8328 -77.2706 221° Southwest 410 472 40,000  Level Washington Center
07:37PM 38.7483 -77.3592 219° Southwest 410 472 40,000  Level Washington Center
07:38PM 38.6569 -77.4606 221° Southwest 410 472 40,000  Level Washington Center
07:39PM 38.5722 -77.5542 221° Southwest 410 472 40,000  Level Washington Center
07:40PM 38.4872 -77.6447 220° Southwest 410 472 40,000  Level Washington Center
07:41PM 38.4044 -77.7350 221° Southwest 410 472 40,000  Level Washington Center
07:42PM 38.3192 -77.8281 221° Southwest 410 472 40,000  Level Washington Center
07:43PM 38.2361 -77.9181 220° Southwest 410 472 40,000  Level Washington Center
07:44PM 38.1531 -78.0078 220° Southwest 410 472 40,000  Level Washington Center
07:45PM 38.0658 -78.0972 219° Southwest 410 472 40,000  Level Washington Center
07:46PM 37.9911 -78.1739 219° Southwest 405 466 40,000  Level Washington Center
07:47PM 37.8975 -78.2656 218° Southwest 399 459 40,000  Level Washington Center
07:48PM 37.8100 -78.3517 218° Southwest 399 459 40,000  Level Washington Center
07:49PM 37.7203 -78.4378 217° Southwest 399 459 40,000  Level Washington Center
07:50PM 37.6328 -78.5183 216° Southwest 399 459 40,000  Level Washington Center
07:51PM 37.5453 -78.5989 216° Southwest 399 459 40,000  Level Washington Center
07:52PM 37.4661 -78.6767 218° Southwest 399 459 40,000  Level Washington Center
07:53PM 37.3764 -78.7567 215° Southwest 399 459 40,000  Level Washington Center
07:54PM 37.2886 -78.8392 217° Southwest 399 459 40,000  Level Washington Center
07:55PM 37.2008 -78.9217 217° Southwest 399 459 40,000  Level Washington Center
07:56PM 37.1025 -79.0086 215° Southwest 399 459 40,000  Level Washington Center
07:57PM 37.0189 -79.0906 218° Southwest 399 459 40,000  Level Washington Center
07:58PM 36.9331 -79.1672 216° Southwest 399 459 40,000  Level Washington Center
07:59PM 36.8453 -79.2464 216° Southwest 399 459 40,000  Level Washington Center
08:00PM 36.7614 -79.3253 217° Southwest 399 459 40,000  Level Washington Center
08:02PM 36.5808 -79.4889 216° Southwest 393 452 40,000  Level Atlanta Center
08:03PM 36.4961 -79.5658 216° Southwest 393 452 40,000  Level Atlanta Center
08:04PM 36.4072 -79.6456 216° Southwest 393 452 40,000  Level Atlanta Center
08:05PM 36.3142 -79.7281 216° Southwest 393 452 40,000  Level Atlanta Center
08:06PM 36.2314 -79.8072 218° Southwest 387 445 40,000  Level Atlanta Center
08:07PM 36.1464 -79.8811 215° Southwest 387 445 40,000  Level Atlanta Center
08:08PM 36.0614 -79.9572 216° Southwest 387 445 40,000  Level Atlanta Center
08:09PM 35.9733 -80.0078 205° Southwest 387 445 40,000  Level Atlanta Center
08:10PM 35.8728 -80.0589 202° Southwest 387 445 40,000  Level Atlanta Center
08:11PM 35.7703 -80.1128 203° Southwest 397 457 40,000  Level Atlanta Center
08:12PM 35.6717 -80.1633 203° Southwest 392 451 40,000  Level Atlanta Center
08:13PM 35.5711 -80.2142 202° Southwest 392 451 40,000  Level Atlanta Center
08:14PM 35.4744 -80.2619 202° Southwest 386 444 40,000  Level Atlanta Center
08:15PM 35.3739 -80.3125 202° Southwest 386 444 40,000  Level Atlanta Center
08:16PM 35.2731 -80.3653 203° Southwest 391 450 40,000  Level Atlanta Center
08:18PM 35.0875 -80.4547 202° Southwest 396 456 40,000  Level Jacksonville Center
08:19PM 34.9842 -80.5083 203° Southwest 396 456 40,000  Level Jacksonville Center
08:20PM 34.8850 -80.5567 202° Southwest 396 456 40,000  Level Jacksonville Center
08:21PM 34.7753 -80.6103 202° Southwest 391 450 40,000  Level Jacksonville Center
08:22PM 34.6719 -80.6611 202° Southwest 391 450 40,000  Level Jacksonville Center
08:23PM 34.5750 -80.7114 203° Southwest 407 468 40,000  Level Jacksonville Center
08:24PM 34.4733 -80.7567 200° South 412 474 40,000  Level Jacksonville Center
08:25PM 34.3722 -80.8147 205° Southwest 402 463 40,000  Level Jacksonville Center
08:26PM 34.2667 -80.8600 200° South 397 457 40,000  Level Jacksonville Center
08:27PM 34.1650 -80.9100 202° Southwest 390 449 40,000  Level Jacksonville Center
08:28PM 34.0636 -80.9572 201° Southwest 390 449 40,000  Level Jacksonville Center
08:29PM 33.9642 -81.0072 203° Southwest 390 449 40,000  Level Jacksonville Center
08:30PM 33.8708 -81.0467 199° South 390 449 40,000  Level Jacksonville Center
08:31PM 33.7714 -81.0986 203° Southwest 390 449 40,000  Level Jacksonville Center
08:32PM 33.6594 -81.1533 202° Southwest 390 449 40,000  Level Jacksonville Center
08:33PM 33.5622 -81.2050 204° Southwest 390 449 40,000  Level Jacksonville Center
08:34PM 33.4564 -81.2544 201° Southwest 396 456 40,000  Level Jacksonville Center
08:35PM 33.3547 -81.3061 203° Southwest 396 456 40,000  Level Jacksonville Center
08:36PM 33.2531 -81.3550 202° Southwest 396 456 40,000  Level Jacksonville Center
08:37PM 33.1494 -81.4039 202° Southwest 396 456 40,000  Level Jacksonville Center
08:38PM 33.0517 -81.4503 202° Southwest 402 463 40,000  Level Jacksonville Center
08:39PM 32.9353 -81.4792 192° South 412 474 40,000  Level Jacksonville Center
08:40PM 32.8186 -81.5133 194° South 429 494 40,000  Level Jacksonville Center
08:41PM 32.7000 -81.5447 193° South 435 501 40,000  Level Jacksonville Center
08:42PM 32.5878 -81.5758 193° South 430 495 40,000  Level Jacksonville Center
08:43PM 32.4586 -81.6097 192° South 430 495 40,000  Level Jacksonville Center
08:44PM 32.3525 -81.6383 193° South 430 495 40,000  Level Jacksonville Center
08:45PM 32.2233 -81.6719 192° South 430 495 40,000  Level Jacksonville Center
08:46PM 32.1047 -81.7056 193° South 430 495 40,000  Level Jacksonville Center
08:47PM 31.9858 -81.7364 192° South 435 501 40,000  Level Jacksonville Center
08:48PM 31.8692 -81.7672 193° South 429 494 40,000  Level Jacksonville Center
08:49PM 31.7631 -81.7956 193° South 429 494 40,000  Level Jacksonville Center
08:50PM 31.6317 -81.8311 193° South 435 501 40,000  Level Jacksonville Center
08:51PM 31.5108 -81.8642 193° South 441 507 40,000 50 Level Jacksonville Center
08:52PM 31.4006 -81.8897 191° South 441 507 40,100  Climbing Jacksonville Center
08:53PM 31.2817 -81.9228 193° South 441 507 40,000 -50 Descending Jacksonville Center
08:54PM 31.1631 -81.9531 192° South 441 507 40,000  Level Jacksonville Center
08:55PM 31.0422 -81.9858 193° South 446 513 40,000  Level Jacksonville Center
08:56PM 30.9192 -82.0161 192° South 451 519 40,000  Level Jacksonville Center
08:57PM 30.8003 -82.0486 193° South 451 519 40,000  Level Jacksonville Center
08:58PM 30.6794 -82.0808 193° South 451 519 40,000  Level Jacksonville Center
08:59PM 30.5586 -82.1108 192° South 451 519 40,000  Level Jacksonville Center
09:00PM 30.4375 -82.1361 190° South 451 519 40,000  Level Jacksonville Center
09:01PM 30.3103 -82.1492 185° South 451 519 40,000 -600 Level Jacksonville Center
09:02PM 30.1767 -82.1572 183° South 467 537 38,800 -1,700 Descending Jacksonville Center
09:03PM 30.0369 -82.1681 184° South 467 537 36,600 -3,000 Descending Jacksonville Center
09:04PM 29.9033 -82.1808 185° South 472 543 32,800 -3,550 Descending Jacksonville Center
09:05PM 29.7739 -82.1914 184° South 477 549 29,500 -2,950 Descending Jacksonville Center
09:06PM 29.6467 -82.1972 182° South 470 541 26,900 -1,750 Descending Jacksonville Center
09:07PM 29.5297 -82.2053 183° South 452 520 26,000 -950 Descending Jacksonville Center
09:08PM 29.4108 -82.2131 183° South 439 505 25,000 -1,050 Descending Jacksonville Center
09:09PM 29.2939 -82.2211 183° South 427 491 23,900 -1,550 Descending Jacksonville Center
09:10PM 29.1833 -82.2289 184° South 414 476 21,900 -2,200 Descending Jacksonville Center
09:11PM 29.0750 -82.2369 184° South 402 463 19,500 -2,400 Descending Jacksonville Center
09:12PM 28.9664 -82.2422 182° South 396 456 17,100 -2,300 Descending Jacksonville Center
09:13PM 28.8703 -82.2478 183° South 396 456 14,900 -1,406 Descending Jacksonville Center
09:15PM 28.6500 -82.2500 181° South 300 345 12,600 -1,031 Descending Tampa TRACON
09:16PM 28.5667 -82.2500 180° South 299 344 11,600 -1,000 Descending Tampa TRACON
09:17PM 28.5000 -82.2500 180° South 301 346 10,700 -1,421 Descending Tampa TRACON
09:18PM 28.4167 -82.2500 180° South 296 341 8,900 -1,700 Descending Tampa TRACON
09:19PM 28.3333 -82.2833 199° South 291 335 7,300 -1,600 Descending Tampa TRACON
09:20PM 28.2833 -82.3333 221° Southwest 271 312 5,700 -1,500 Descending Tampa TRACON
09:21PM 28.2333 -82.4000 230° Southwest 263 303 4,300 -1,300 Descending Tampa TRACON
09:22PM 28.1833 -82.4667 230° Southwest 256 295 3,100 -684 Descending Tampa TRACON
09:23PM 28.1500 -82.5000 221° Southwest 186 214 3,000 -368 Descending Tampa TRACON
09:24PM 28.1167 -82.5167 204° Southwest 149 171 2,400 -700 Descending Tampa TRACON
09:25PM 28.0667 -82.5333 196° South 159 183 1,600 -700 Descending Tampa TRACON
09:26PM 28.0333 -82.5333 180° South 135 155 1,000 -600 Descending Tampa TRACON